aviador You're here:

KEHR Decoded Metar

HENDERSON CITY in KY, USA
Report Time2017-10-21 14:56:00
UTC Time2017-10-21 15:58:00
Flight Rules vfr VFR
Wind170° at 07 kt
W.Decomp.*RWY 09: 1.1 kt HW 6.9 kt RCW
W.Rank170° ranks 6
Current wind is below 170° avg. (7.0)
Visibility9999 m
Phenomena:N/A
Clouds:N/A
Expected CloudBase > 2,800 ft AGL from Temp-Dew spread
CeilingNone
Temp18°C (ISA +4)
Dew Point11°C (64% RH)
AAT15.8°C
QNH1023 hPa
Density Alt666 ft
Elevation384 ft
Report Wrong Elevation
Raw Report
KEHR 211456Z AUTO 17007KT 10SM CLR 18/11 A3020 RMK AO2 SLP236
T01780106 51012=

Extra information for KEHR:More info

Metar Taf Metar & Taf Last 4 Metars F.Rules Stats Wind Profile Meteogram Temp Stats Airport Information Weather charts Add Link Nearby VenuesMetar ALERT Operation Metar Decoded Social comments

AIRNAV info for KEHR